createdAt,value
2022-12-09T00:00:33.520Z,10.10
2022-12-09T00:01:41.052Z,13.13
2022-12-09T00:02:44.828Z,13.43
2022-12-09T00:03:49.042Z,11.02
2022-12-09T00:04:54.921Z,11.45
2022-12-09T00:05:59.938Z,12.90
2022-12-09T00:07:10.337Z,10.05
2022-12-09T00:08:16.429Z,11.45
2022-12-09T00:09:20.750Z,6.68
2022-12-09T00:10:24.563Z,9.13
2022-12-09T00:11:28.480Z,11.65
2022-12-09T00:12:32.068Z,12.35
2022-12-09T00:13:36.487Z,9.82
2022-12-09T00:14:40.185Z,6.72
2022-12-09T00:15:44.016Z,11.13
2022-12-09T00:16:47.836Z,17.95
2022-12-09T00:17:52.340Z,8.50
2022-12-09T00:18:57.648Z,12.43
2022-12-09T00:20:01.598Z,18.58
2022-12-09T00:21:29.713Z,15.40
2022-12-09T00:22:36.403Z,16.17
2022-12-09T00:23:42.392Z,13.70
2022-12-09T00:24:53.133Z,10.95
2022-12-09T00:26:13.514Z,14.95
2022-12-09T00:27:21.455Z,7.13
2022-12-09T00:28:26.572Z,14.90
2022-12-09T00:29:35.565Z,11.30
2022-12-09T00:30:42.440Z,15.82
2022-12-09T00:31:46.154Z,9.35
2022-12-09T00:32:50.037Z,13.15
2022-12-09T00:34:07.302Z,10.30
2022-12-09T00:35:21.473Z,11.15
2022-12-09T00:36:31.691Z,10.00
2022-12-09T00:37:36.441Z,8.15
2022-12-09T00:38:56.347Z,15.88
2022-12-09T00:40:00.507Z,13.02
2022-12-09T00:41:29.448Z,16.55
2022-12-09T00:42:42.269Z,13.48
2022-12-09T00:44:03.227Z,9.10
2022-12-09T00:45:16.126Z,11.77
2022-12-09T00:46:26.063Z,10.75
2022-12-09T00:48:58.302Z,15.00
2022-12-09T00:50:09.132Z,13.55
2022-12-09T00:51:29.616Z,9.73
2022-12-09T00:52:33.596Z,12.07
2022-12-09T00:53:41.179Z,19.48
2022-12-09T00:54:51.781Z,15.27
2022-12-09T00:56:02.279Z,11.68
2022-12-09T00:57:15.358Z,16.88
2022-12-09T00:58:31.339Z,8.38
2022-12-09T00:59:47.789Z,13.57
2022-12-09T01:00:58.499Z,12.80
2022-12-09T01:02:15.841Z,9.70
2022-12-09T01:03:24.187Z,13.20
2022-12-09T01:04:28.061Z,14.48
2022-12-09T01:05:36.849Z,7.57
2022-12-09T01:06:53.388Z,11.55
2022-12-09T01:07:57.443Z,23.60
2022-12-09T01:09:14.008Z,8.85
2022-12-09T01:10:52.182Z,19.63
2022-12-09T01:12:13.208Z,8.20
2022-12-09T01:13:19.500Z,14.00
2022-12-09T01:14:27.891Z,15.48
2022-12-09T01:15:41.033Z,12.52
2022-12-09T01:16:45.744Z,25.08
2022-12-09T01:17:56.131Z,11.73
2022-12-09T01:19:05.127Z,11.80
2022-12-09T01:20:15.096Z,15.10
2022-12-09T01:21:20.337Z,10.07
2022-12-09T01:22:26.947Z,23.58
2022-12-09T01:23:36.548Z,9.70
2022-12-09T01:24:41.630Z,10.55
2022-12-09T01:25:52.829Z,23.00
2022-12-09T01:26:56.388Z,20.23
2022-12-09T01:28:00.980Z,11.23
2022-12-09T01:29:18.126Z,9.80
2022-12-09T01:30:30.205Z,16.40
2022-12-09T01:31:39.974Z,15.23
2022-12-09T01:32:55.520Z,22.65
2022-12-09T01:33:59.392Z,14.73
2022-12-09T01:35:08.105Z,11.90
2022-12-09T01:36:29.066Z,10.27
2022-12-09T01:37:35.252Z,14.43
2022-12-09T01:38:57.637Z,16.55
2022-12-09T01:40:20.287Z,16.20
2022-12-09T01:41:26.358Z,12.63
2022-12-09T01:42:34.645Z,14.75
2022-12-09T01:43:42.219Z,12.35
2022-12-09T01:45:32.805Z,15.35
2022-12-09T01:46:46.941Z,15.77
2022-12-09T01:48:16.708Z,13.15
2022-12-09T01:49:57.207Z,14.57
2022-12-09T01:51:16.965Z,16.20
2022-12-09T01:52:27.451Z,16.27
2022-12-09T01:53:41.639Z,13.05
2022-12-09T01:54:54.709Z,11.68
2022-12-09T01:56:11.418Z,16.00
2022-12-09T01:57:18.755Z,13.75
2022-12-09T01:58:29.770Z,16.48
2022-12-09T01:59:36.846Z,7.80
2022-12-09T02:00:46.977Z,15.98
2022-12-09T02:02:00.244Z,11.98
2022-12-09T02:03:17.299Z,18.08
2022-12-09T02:04:28.234Z,12.20
2022-12-09T02:05:32.436Z,12.25
2022-12-09T02:06:41.027Z,15.48
2022-12-09T02:07:44.676Z,17.90
2022-12-09T02:08:51.466Z,17.90
2022-12-09T02:09:55.112Z,15.02
2022-12-09T02:11:06.907Z,15.73
2022-12-09T02:12:24.418Z,11.95
2022-12-09T02:13:37.567Z,10.43
2022-12-09T02:15:18.628Z,15.35
2022-12-09T02:16:30.742Z,12.23
2022-12-09T02:17:56.050Z,10.52
2022-12-09T02:20:02.025Z,16.20
2022-12-09T02:21:49.825Z,20.17
2022-12-09T02:23:44.720Z,11.82
2022-12-09T02:25:43.892Z,27.83
2022-12-09T02:27:20.826Z,11.13
2022-12-09T02:28:40.411Z,9.02
2022-12-09T02:30:19.509Z,16.23
2022-12-09T02:32:06.131Z,12.30
2022-12-09T02:33:36.721Z,14.23
2022-12-09T02:35:04.238Z,6.95
2022-12-09T02:36:26.776Z,11.40
2022-12-09T02:37:59.545Z,13.05
2022-12-09T02:39:04.026Z,10.88
2022-12-09T02:40:46.636Z,13.60
2022-12-09T02:42:07.076Z,13.52
2022-12-09T02:43:13.783Z,17.08
2022-12-09T02:44:23.681Z,8.73
2022-12-09T02:45:31.707Z,9.98
2022-12-09T02:46:36.980Z,11.25
2022-12-09T02:47:48.889Z,10.25
2022-12-09T02:48:57.922Z,8.98
2022-12-09T02:50:14.306Z,8.82
2022-12-09T02:51:22.607Z,14.40
2022-12-09T02:52:28.393Z,13.65
2022-12-09T02:53:37.580Z,12.88
2022-12-09T02:54:43.910Z,23.35
2022-12-09T02:55:50.481Z,17.23
2022-12-09T02:57:03.988Z,13.73
2022-12-09T02:58:07.954Z,10.77
2022-12-09T02:59:35.622Z,13.15
2022-12-09T03:00:49.295Z,11.65
2022-12-09T03:02:49.724Z,10.02
2022-12-09T03:03:55.882Z,14.48
2022-12-09T03:05:53.556Z,13.07
2022-12-09T03:07:31.746Z,15.35
2022-12-09T03:09:02.622Z,12.32
2022-12-09T03:10:23.010Z,13.15
2022-12-09T03:11:33.599Z,16.90
2022-12-09T03:12:44.023Z,10.50
2022-12-09T03:14:12.583Z,17.73
2022-12-09T03:15:30.215Z,10.77
2022-12-09T03:16:55.297Z,16.02
2022-12-09T03:20:01.045Z,13.65
2022-12-09T03:21:09.736Z,10.85
2022-12-09T03:22:27.940Z,11.88
2022-12-09T03:23:43.851Z,16.42
2022-12-09T03:25:20.762Z,18.70
2022-12-09T03:26:33.330Z,15.15
2022-12-09T03:28:21.321Z,14.90
2022-12-09T03:29:32.219Z,13.43
2022-12-09T03:30:45.479Z,15.52
2022-12-09T03:32:09.295Z,12.52
2022-12-09T03:33:29.847Z,17.17
2022-12-09T03:34:48.078Z,10.50
2022-12-09T03:35:58.327Z,8.52
2022-12-09T03:38:32.765Z,12.18
2022-12-09T03:39:19.967Z,11.30
2022-12-09T03:40:43.459Z,15.90
2022-12-09T03:41:57.303Z,10.65
2022-12-09T03:43:37.805Z,13.50
2022-12-09T03:45:08.289Z,14.75
2022-12-09T03:46:33.060Z,15.75
2022-12-09T03:47:53.035Z,11.23
2022-12-09T03:49:16.687Z,12.35
2022-12-09T03:50:34.966Z,8.07
2022-12-09T03:52:08.709Z,11.95
2022-12-09T03:53:22.682Z,10.77
2022-12-09T03:54:40.893Z,12.85
2022-12-09T03:56:48.118Z,6.78
2022-12-09T03:58:09.131Z,15.05
2022-12-09T03:59:29.500Z,12.45
2022-12-09T04:00:40.000Z,15.75
2022-12-09T04:01:58.266Z,14.13
2022-12-09T04:03:08.881Z,14.85
2022-12-09T04:04:17.913Z,16.10
2022-12-09T04:05:24.480Z,11.40
2022-12-09T04:06:29.385Z,12.60
2022-12-09T04:07:32.925Z,8.85
2022-12-09T04:08:37.192Z,17.95
2022-12-09T04:09:42.575Z,21.27
2022-12-09T04:10:47.022Z,11.48
2022-12-09T04:11:50.916Z,6.68
2022-12-09T04:12:54.603Z,11.93
2022-12-09T04:14:02.566Z,13.35
2022-12-09T04:15:07.787Z,13.27
2022-12-09T04:16:11.787Z,11.10
2022-12-09T04:17:15.468Z,12.63
2022-12-09T04:18:19.052Z,21.27
2022-12-09T04:19:22.551Z,13.50
2022-12-09T04:20:26.377Z,11.13
2022-12-09T04:21:30.093Z,11.40
2022-12-09T04:22:33.593Z,11.88
2022-12-09T04:23:42.509Z,8.27
2022-12-09T04:24:46.789Z,10.30
2022-12-09T04:25:50.491Z,9.38
2022-12-09T04:27:00.176Z,11.75
2022-12-09T04:28:04.200Z,11.55
2022-12-09T04:29:19.912Z,14.68
2022-12-09T04:30:23.543Z,12.68
2022-12-09T04:31:27.504Z,11.95
2022-12-09T04:32:32.047Z,9.40
2022-12-09T04:33:35.744Z,9.40
2022-12-09T04:34:39.464Z,11.75
2022-12-09T04:35:43.096Z,11.77
2022-12-09T04:36:46.512Z,19.35
2022-12-09T04:37:50.403Z,19.70
2022-12-09T04:38:57.145Z,9.10
2022-12-09T04:40:00.648Z,7.97
2022-12-09T04:41:05.684Z,18.98
2022-12-09T04:42:10.422Z,12.50
2022-12-09T04:43:14.619Z,11.80
2022-12-09T04:44:18.335Z,10.68
2022-12-09T04:45:22.121Z,17.67
2022-12-09T04:46:26.770Z,15.77
2022-12-09T04:47:30.385Z,10.15
2022-12-09T04:48:34.267Z,10.18
2022-12-09T04:49:38.227Z,11.02
2022-12-09T04:50:45.418Z,9.52
2022-12-09T04:51:52.642Z,10.20
2022-12-09T04:52:59.071Z,10.40
2022-12-09T04:54:03.101Z,13.18
2022-12-09T04:55:07.835Z,25.88
2022-12-09T04:56:19.065Z,9.77
2022-12-09T04:57:23.699Z,17.15
2022-12-09T04:58:28.429Z,17.05
2022-12-09T04:59:32.453Z,13.85
2022-12-09T05:00:36.177Z,15.15
2022-12-09T05:01:40.159Z,8.63
2022-12-09T05:02:44.781Z,10.73
2022-12-09T05:03:51.947Z,10.93
2022-12-09T05:04:56.315Z,13.88
2022-12-09T05:06:02.745Z,19.85
2022-12-09T05:07:06.916Z,9.23
2022-12-09T05:08:10.923Z,16.48
2022-12-09T05:09:15.277Z,13.70
2022-12-09T05:10:19.607Z,16.48
2022-12-09T05:11:24.973Z,12.98
2022-12-09T05:12:28.715Z,15.13
2022-12-09T05:13:34.325Z,15.30
2022-12-09T05:14:38.412Z,16.88
2022-12-09T05:15:42.403Z,13.50
2022-12-09T05:16:46.856Z,11.82
2022-12-09T05:17:50.629Z,9.50
2022-12-09T05:18:54.700Z,12.07
2022-12-09T05:19:58.618Z,13.00
2022-12-09T05:21:11.988Z,13.38
2022-12-09T05:22:19.516Z,8.40
2022-12-09T05:23:23.797Z,11.93
2022-12-09T05:24:27.843Z,10.13
2022-12-09T05:25:34.010Z,10.18
2022-12-09T05:26:40.048Z,10.43
2022-12-09T05:27:44.067Z,10.13
2022-12-09T05:28:48.272Z,15.07
2022-12-09T05:29:52.562Z,12.15
2022-12-09T05:31:04.871Z,8.32
2022-12-09T05:32:10.777Z,17.15
2022-12-09T05:33:15.887Z,18.35
2022-12-09T05:34:19.855Z,15.05
2022-12-09T05:35:23.748Z,14.32
2022-12-09T05:36:27.816Z,10.60
2022-12-09T05:37:32.296Z,11.15
2022-12-09T05:38:36.486Z,8.85
2022-12-09T05:39:40.277Z,11.02
2022-12-09T05:40:43.823Z,13.38
2022-12-09T05:41:47.951Z,7.05
2022-12-09T05:42:51.834Z,14.45
2022-12-09T05:43:56.633Z,15.52
2022-12-09T05:45:01.199Z,8.68
2022-12-09T05:46:06.815Z,10.30
2022-12-09T05:47:11.369Z,19.13
2022-12-09T05:48:18.714Z,20.15
2022-12-09T05:49:36.393Z,13.68
2022-12-09T05:50:41.159Z,15.30
2022-12-09T05:51:59.799Z,13.55
2022-12-09T05:53:14.609Z,18.40
2022-12-09T05:54:20.938Z,14.82
2022-12-09T05:55:25.014Z,13.70
2022-12-09T05:56:29.191Z,11.45
2022-12-09T05:57:35.306Z,15.18
2022-12-09T05:58:39.235Z,6.10
2022-12-09T05:59:43.147Z,14.55
2022-12-09T06:00:47.782Z,14.20
2022-12-09T06:01:51.689Z,10.32
2022-12-09T06:02:55.258Z,16.02
2022-12-09T06:03:59.001Z,11.48
2022-12-09T06:05:03.415Z,12.68
2022-12-09T06:06:31.487Z,7.13
2022-12-09T06:07:36.631Z,11.50
2022-12-09T06:08:42.749Z,15.48
2022-12-09T06:09:47.312Z,15.55
2022-12-09T06:10:51.581Z,12.48
2022-12-09T06:11:55.274Z,13.82
2022-12-09T06:12:58.935Z,12.68
2022-12-09T06:14:02.838Z,13.27
2022-12-09T06:15:10.454Z,13.15
2022-12-09T06:16:19.921Z,14.73
2022-12-09T06:17:24.184Z,8.95
2022-12-09T06:18:27.774Z,16.17
2022-12-09T06:19:31.854Z,17.15
2022-12-09T06:20:38.905Z,12.55
2022-12-09T06:21:43.098Z,13.88
2022-12-09T06:22:46.909Z,10.30
2022-12-09T06:23:51.654Z,20.45
2022-12-09T06:24:57.343Z,9.55
2022-12-09T06:26:00.896Z,9.10
2022-12-09T06:27:05.243Z,8.77
2022-12-09T06:28:09.346Z,10.77
2022-12-09T06:29:13.474Z,15.15
2022-12-09T06:30:17.397Z,16.25
2022-12-09T06:31:21.358Z,23.20
2022-12-09T06:32:26.055Z,7.70
2022-12-09T06:33:53.639Z,11.15
2022-12-09T06:34:53.755Z,11.35
2022-12-09T06:36:02.827Z,12.50
2022-12-09T06:37:06.410Z,13.07
2022-12-09T06:38:10.327Z,12.75
2022-12-09T06:39:14.381Z,10.52
2022-12-09T06:40:18.089Z,9.80
2022-12-09T06:41:21.950Z,12.15
2022-12-09T06:42:25.918Z,9.93
2022-12-09T06:43:30.108Z,10.25
2022-12-09T06:44:34.352Z,18.40
2022-12-09T06:45:38.919Z,16.27
2022-12-09T06:46:42.912Z,14.13
2022-12-09T06:47:48.305Z,18.00
2022-12-09T06:48:53.880Z,15.40
2022-12-09T06:50:06.533Z,36.35
2022-12-09T06:51:11.987Z,14.00
2022-12-09T06:52:15.960Z,10.35
2022-12-09T06:53:19.481Z,8.10
2022-12-09T06:54:23.705Z,18.42
2022-12-09T06:55:30.035Z,13.80
2022-12-09T06:56:34.020Z,10.35
2022-12-09T06:57:37.630Z,18.50
2022-12-09T06:58:45.079Z,15.48
2022-12-09T06:59:49.549Z,17.10
2022-12-09T07:00:53.275Z,11.43
2022-12-09T07:01:58.854Z,12.50
2022-12-09T07:03:02.844Z,9.23
2022-12-09T07:04:08.472Z,25.65
2022-12-09T07:05:13.021Z,16.63
2022-12-09T07:06:42.777Z,15.82
2022-12-09T07:07:54.611Z,14.07
2022-12-09T07:09:08.141Z,10.55
2022-12-09T07:10:12.204Z,17.08
2022-12-09T07:11:16.139Z,12.77
2022-12-09T07:12:20.738Z,11.23
2022-12-09T07:13:25.323Z,9.60
2022-12-09T07:14:28.892Z,18.00
2022-12-09T07:15:32.751Z,10.13
2022-12-09T07:16:37.477Z,12.02
2022-12-09T07:17:41.430Z,14.10
2022-12-09T07:18:45.479Z,18.45
2022-12-09T07:19:51.414Z,9.98
2022-12-09T07:20:55.220Z,15.82
2022-12-09T07:21:59.816Z,11.25
2022-12-09T07:23:03.581Z,17.52
2022-12-09T07:24:12.656Z,19.33
2022-12-09T07:25:16.320Z,15.88
2022-12-09T07:26:21.374Z,12.90
2022-12-09T07:27:25.108Z,14.00
2022-12-09T07:28:29.898Z,18.15
2022-12-09T07:29:35.399Z,12.15
2022-12-09T07:30:39.107Z,14.68
2022-12-09T07:31:43.240Z,14.50
2022-12-09T07:32:47.311Z,16.98
2022-12-09T07:33:53.553Z,17.95
2022-12-09T07:34:57.897Z,12.52
2022-12-09T07:36:01.749Z,15.93
2022-12-09T07:37:07.289Z,14.07
2022-12-09T07:38:10.952Z,13.95
2022-12-09T07:39:18.703Z,22.27
2022-12-09T07:40:22.252Z,16.60
2022-12-09T07:41:27.403Z,17.50
2022-12-09T07:42:31.296Z,11.55
2022-12-09T07:43:39.210Z,19.25
2022-12-09T07:44:43.068Z,16.75
2022-12-09T07:45:46.638Z,13.93
2022-12-09T07:46:52.158Z,13.13
2022-12-09T07:47:56.400Z,10.30
2022-12-09T07:49:04.837Z,20.45
2022-12-09T07:50:09.211Z,16.05
2022-12-09T07:51:12.827Z,20.17
2022-12-09T07:52:16.458Z,11.93
2022-12-09T07:53:19.989Z,18.70
2022-12-09T07:54:23.897Z,16.85
2022-12-09T07:55:28.199Z,18.70
2022-12-09T07:56:32.200Z,19.58
2022-12-09T07:57:38.445Z,19.10
2022-12-09T07:58:44.757Z,21.35
2022-12-09T07:59:48.785Z,13.20
2022-12-09T08:00:52.676Z,21.70
2022-12-09T08:02:01.092Z,18.80
2022-12-09T08:03:08.127Z,15.23
2022-12-09T08:04:13.157Z,20.50
2022-12-09T08:05:17.712Z,14.23
2022-12-09T08:06:26.164Z,15.40
2022-12-09T08:07:31.069Z,9.65
2022-12-09T08:08:35.685Z,19.23
2022-12-09T08:09:39.583Z,12.30
2022-12-09T08:10:44.682Z,17.27
2022-12-09T08:11:48.624Z,17.55
2022-12-09T08:12:52.453Z,17.58
2022-12-09T08:14:08.856Z,11.13
2022-12-09T08:15:17.052Z,18.02
2022-12-09T08:16:23.747Z,18.45
2022-12-09T08:17:29.794Z,16.90
2022-12-09T08:18:42.924Z,12.82
2022-12-09T08:19:46.884Z,19.50
2022-12-09T08:20:50.954Z,18.58
2022-12-09T08:21:54.993Z,16.42
2022-12-09T08:22:59.190Z,18.98
2022-12-09T08:24:06.043Z,15.10
2022-12-09T08:25:11.298Z,29.00
2022-12-09T08:26:19.214Z,15.98
2022-12-09T08:27:23.271Z,23.52
2022-12-09T08:28:27.667Z,15.23
2022-12-09T08:29:31.374Z,16.30
2022-12-09T08:30:37.658Z,26.67
2022-12-09T08:31:44.256Z,16.60
2022-12-09T08:32:48.553Z,25.13
2022-12-09T08:33:53.835Z,17.95
2022-12-09T08:34:57.688Z,23.90
2022-12-09T08:36:04.588Z,16.58
2022-12-09T08:37:08.671Z,29.27
2022-12-09T08:38:13.082Z,26.33
2022-12-09T08:39:16.927Z,18.33
2022-12-09T08:40:20.451Z,14.75
2022-12-09T08:41:38.490Z,30.75
2022-12-09T08:42:43.112Z,26.92
2022-12-09T08:43:48.374Z,20.92
2022-12-09T08:44:57.131Z,26.23
2022-12-09T08:46:08.697Z,19.83
2022-12-09T08:47:12.478Z,16.40
2022-12-09T08:48:16.780Z,21.00
2022-12-09T08:49:23.418Z,21.70
2022-12-09T08:50:27.395Z,15.40
2022-12-09T08:51:32.494Z,16.58
2022-12-09T08:52:40.901Z,22.52
2022-12-09T08:53:48.905Z,16.88
2022-12-09T08:54:53.010Z,20.58
2022-12-09T08:55:57.097Z,24.08
2022-12-09T08:57:04.589Z,22.13
2022-12-09T08:58:08.496Z,15.65
2022-12-09T08:59:12.421Z,30.50
2022-12-09T09:00:17.510Z,26.33
2022-12-09T09:01:37.403Z,23.65
2022-12-09T09:02:41.443Z,17.25
2022-12-09T09:03:47.063Z,16.55
2022-12-09T09:04:51.021Z,20.98
2022-12-09T09:06:08.702Z,17.15
2022-12-09T09:07:14.390Z,25.60
2022-12-09T09:08:20.465Z,27.35
2022-12-09T09:09:27.164Z,13.82
2022-12-09T09:10:31.221Z,17.00
2022-12-09T09:11:35.734Z,19.45
2022-12-09T09:12:43.495Z,20.35
2022-12-09T09:13:51.755Z,31.48
2022-12-09T09:14:55.568Z,26.20
2022-12-09T09:15:59.359Z,20.35
2022-12-09T09:17:03.534Z,16.08
2022-12-09T09:18:07.742Z,22.13
2022-12-09T09:19:29.601Z,32.63
2022-12-09T09:20:33.628Z,25.55
2022-12-09T09:21:37.384Z,15.63
2022-12-09T09:22:41.697Z,24.20
2022-12-09T09:23:46.125Z,21.10
2022-12-09T09:24:51.245Z,27.70
2022-12-09T09:25:54.906Z,20.45
2022-12-09T09:26:58.875Z,19.05
2022-12-09T09:28:02.957Z,23.55
2022-12-09T09:29:08.587Z,20.08
2022-12-09T09:30:12.949Z,19.23
2022-12-09T09:31:21.212Z,17.73
2022-12-09T09:32:24.866Z,18.40
2022-12-09T09:33:29.940Z,16.52
2022-12-09T09:34:33.773Z,19.92
2022-12-09T09:35:37.947Z,15.35
2022-12-09T09:36:42.382Z,28.13
2022-12-09T09:37:46.489Z,27.10
2022-12-09T09:38:57.620Z,15.10
2022-12-09T09:40:02.603Z,22.85
2022-12-09T09:41:48.751Z,22.13
2022-12-09T09:42:56.833Z,30.17
2022-12-09T09:44:02.028Z,22.00
2022-12-09T09:45:15.226Z,25.38
2022-12-09T09:46:44.983Z,26.67
2022-12-09T09:47:56.730Z,17.90
2022-12-09T09:49:02.553Z,27.50
2022-12-09T09:50:27.731Z,31.95
2022-12-09T09:51:35.764Z,18.35
2022-12-09T09:52:42.820Z,20.48
2022-12-09T09:53:53.437Z,21.65
2022-12-09T09:54:58.686Z,21.50
2022-12-09T09:56:35.318Z,16.77
2022-12-09T09:58:00.261Z,16.40
2022-12-09T09:59:42.016Z,14.70
2022-12-09T10:01:08.538Z,20.52
2022-12-09T10:02:12.674Z,16.98
2022-12-09T10:03:48.743Z,17.23
2022-12-09T10:05:19.735Z,23.17
2022-12-09T10:06:50.899Z,21.20
2022-12-09T10:08:32.798Z,19.80
2022-12-09T10:10:15.683Z,13.63
2022-12-09T10:11:49.560Z,13.65
2022-12-09T10:13:08.224Z,12.30
2022-12-09T10:14:28.797Z,16.67
2022-12-09T10:16:06.392Z,22.40
2022-12-09T10:17:48.976Z,10.25
2022-12-09T10:19:20.681Z,13.68
2022-12-09T10:20:30.639Z,10.50
2022-12-09T10:21:42.627Z,19.85
2022-12-09T10:22:56.871Z,24.27
2022-12-09T10:24:48.488Z,13.73
2022-12-09T10:26:00.370Z,11.55
2022-12-09T10:27:35.099Z,13.90
2022-12-09T10:28:48.417Z,11.48
2022-12-09T10:30:03.603Z,14.25
2022-12-09T10:31:10.448Z,9.93
2022-12-09T10:32:20.663Z,12.77
2022-12-09T10:33:37.232Z,7.70
2022-12-09T10:34:44.471Z,7.55
2022-12-09T10:35:49.566Z,8.98
2022-12-09T10:36:53.802Z,7.38
2022-12-09T10:38:11.815Z,8.20
2022-12-09T10:39:22.020Z,12.27
2022-12-09T10:40:46.977Z,16.67
2022-12-09T10:42:18.161Z,12.55
2022-12-09T10:43:39.534Z,8.15
2022-12-09T10:44:43.907Z,6.47
2022-12-09T10:47:29.501Z,10.63
2022-12-09T10:48:49.423Z,9.63
2022-12-09T10:49:56.166Z,7.53
2022-12-09T10:51:17.639Z,8.27
2022-12-09T10:52:31.713Z,11.77
2022-12-09T10:53:36.162Z,10.95
2022-12-09T10:54:44.878Z,10.10
2022-12-09T10:55:54.784Z,7.38
2022-12-09T10:57:13.846Z,8.85
2022-12-09T10:58:31.810Z,9.15
2022-12-09T10:59:36.954Z,8.90
2022-12-09T11:00:57.674Z,4.70
2022-12-09T11:02:09.137Z,14.18
2022-12-09T11:03:31.558Z,6.28
2022-12-09T11:04:44.172Z,5.55
2022-12-09T11:06:03.257Z,17.40
2022-12-09T11:07:13.262Z,5.35
2022-12-09T11:08:23.156Z,12.38
2022-12-09T11:09:38.679Z,8.15
2022-12-09T11:10:51.207Z,7.72
2022-12-09T11:11:55.086Z,7.72
2022-12-09T11:13:08.990Z,8.07
2022-12-09T11:14:40.601Z,8.32
2022-12-09T11:15:54.540Z,10.30
2022-12-09T11:17:18.678Z,13.98
2022-12-09T11:18:47.134Z,10.70
2022-12-09T11:20:22.508Z,8.63
2022-12-09T11:21:37.878Z,9.13
2022-12-09T11:22:45.037Z,7.28
2022-12-09T11:24:02.511Z,5.07
2022-12-09T11:25:13.371Z,4.13
2022-12-09T11:26:35.075Z,8.30
2022-12-09T11:27:42.075Z,4.47
2022-12-09T11:28:45.992Z,6.97
2022-12-09T11:30:13.940Z,5.60
2022-12-09T11:31:30.564Z,4.40
2022-12-09T11:32:55.819Z,5.07
2022-12-09T11:34:14.413Z,6.53
2022-12-09T11:35:25.153Z,4.63
2022-12-09T11:36:44.386Z,9.30
2022-12-09T11:37:48.596Z,5.60
2022-12-09T11:39:09.674Z,2.80
2022-12-09T11:40:19.247Z,3.75
2022-12-09T11:41:44.993Z,7.60
2022-12-09T11:42:58.021Z,5.13
2022-12-09T11:44:02.717Z,5.15
2022-12-09T11:45:31.804Z,5.30
2022-12-09T11:46:36.943Z,5.82
2022-12-09T11:48:23.008Z,5.07
2022-12-09T11:49:17.296Z,9.52
2022-12-09T11:50:25.509Z,18.50
2022-12-09T11:52:18.944Z,10.82
2022-12-09T11:53:32.089Z,6.90
2022-12-09T11:54:58.757Z,4.60
2022-12-09T11:56:27.918Z,5.22
2022-12-09T11:57:43.452Z,5.88
2022-12-09T11:59:14.668Z,6.45
2022-12-09T12:00:21.075Z,17.35
2022-12-09T12:01:46.536Z,3.03
2022-12-09T12:03:20.848Z,5.25
2022-12-09T12:04:35.540Z,3.50
2022-12-09T12:05:47.913Z,8.07
2022-12-09T12:07:03.646Z,4.60
2022-12-09T12:08:43.831Z,5.95
2022-12-09T12:09:56.172Z,3.30
2022-12-09T12:11:14.903Z,4.57
2022-12-09T12:12:43.698Z,4.32
2022-12-09T12:13:49.482Z,3.42
2022-12-09T12:14:56.608Z,5.32
2022-12-09T12:16:13.911Z,3.33
2022-12-09T12:17:24.949Z,3.22
2022-12-09T12:18:36.403Z,4.05
2022-12-09T12:19:43.720Z,3.45
2022-12-09T12:21:17.167Z,5.28
2022-12-09T12:22:51.607Z,2.63
2022-12-09T12:24:28.573Z,3.05
2022-12-09T12:25:53.182Z,7.28
2022-12-09T12:27:15.123Z,4.80
2022-12-09T12:28:28.865Z,4.93
2022-12-09T12:29:48.604Z,21.95
2022-12-09T12:31:32.072Z,4.10
2022-12-09T12:34:54.679Z,5.28
2022-12-09T12:36:22.897Z,4.93
2022-12-09T12:38:03.275Z,4.78
2022-12-09T12:39:45.662Z,4.68
2022-12-09T12:41:26.243Z,5.25
2022-12-09T12:43:06.837Z,3.60
2022-12-09T12:44:47.538Z,5.82
2022-12-09T12:46:20.019Z,4.18
2022-12-09T12:47:45.239Z,5.22
2022-12-09T12:49:20.586Z,3.67
2022-12-09T12:51:24.944Z,4.25
2022-12-09T12:52:57.788Z,9.07
2022-12-09T12:54:48.961Z,6.50
2022-12-09T12:56:00.247Z,5.55
2022-12-09T12:57:22.348Z,4.07
2022-12-09T12:58:46.966Z,6.57
2022-12-09T13:00:24.557Z,5.35
2022-12-09T13:02:00.511Z,12.73
2022-12-09T13:03:26.209Z,8.27
2022-12-09T13:04:46.404Z,7.45
2022-12-09T13:05:54.437Z,3.80
2022-12-09T13:07:12.116Z,5.75
2022-12-09T13:08:35.598Z,11.18
2022-12-09T13:09:58.170Z,5.28
2022-12-09T13:11:22.748Z,5.40
2022-12-09T13:12:54.798Z,6.05
2022-12-09T13:14:06.587Z,4.50
2022-12-09T13:15:19.335Z,8.65
2022-12-09T13:16:39.589Z,7.68
2022-12-09T13:17:46.894Z,4.72
2022-12-09T13:18:50.848Z,7.60
2022-12-09T13:20:02.238Z,5.82
2022-12-09T13:21:07.603Z,4.80
2022-12-09T13:22:27.717Z,9.75
2022-12-09T13:23:57.348Z,8.90
2022-12-09T13:25:33.221Z,7.55
2022-12-09T13:27:26.952Z,4.65
2022-12-09T13:29:13.131Z,3.67
2022-12-09T13:30:27.305Z,7.75
2022-12-09T13:31:35.267Z,12.48
2022-12-09T13:33:12.854Z,4.00
2022-12-09T13:34:40.823Z,8.52
2022-12-09T13:36:15.149Z,5.63
2022-12-09T13:37:45.191Z,4.47
2022-12-09T13:38:49.156Z,4.95
2022-12-09T13:39:58.497Z,4.05
2022-12-09T13:41:30.725Z,5.40
2022-12-09T13:42:53.601Z,5.43
2022-12-09T13:44:11.727Z,7.13
2022-12-09T13:45:36.847Z,6.40
2022-12-09T13:46:47.644Z,5.13
2022-12-09T13:47:56.659Z,9.50
2022-12-09T13:49:11.945Z,3.72
2022-12-09T13:50:32.375Z,4.07
2022-12-09T13:51:48.958Z,8.48
2022-12-09T13:52:57.860Z,5.10
2022-12-09T13:54:04.570Z,3.67
2022-12-09T13:55:54.069Z,3.70
2022-12-09T13:57:39.891Z,9.35
2022-12-09T13:59:21.378Z,6.00
2022-12-09T14:00:25.218Z,8.82
2022-12-09T14:01:42.115Z,6.00
2022-12-09T14:03:12.384Z,9.23
2022-12-09T14:04:30.426Z,5.05
2022-12-09T14:05:37.295Z,8.18
2022-12-09T14:06:46.359Z,5.03
2022-12-09T14:08:07.256Z,4.90
2022-12-09T14:09:56.357Z,4.53
2022-12-09T14:11:52.799Z,5.10
2022-12-09T14:12:56.069Z,10.07
2022-12-09T14:14:24.957Z,4.82
2022-12-09T14:15:28.642Z,5.40
2022-12-09T14:16:35.046Z,6.70
2022-12-09T14:17:38.977Z,5.43
2022-12-09T14:18:43.520Z,8.23
2022-12-09T14:20:39.098Z,8.77
2022-12-09T14:21:42.686Z,8.25
2022-12-09T14:23:12.637Z,7.85
2022-12-09T14:24:16.901Z,5.43
2022-12-09T14:25:26.572Z,3.88
2022-12-09T14:26:59.272Z,3.72
2022-12-09T14:28:24.375Z,10.55
2022-12-09T14:29:50.124Z,5.53
2022-12-09T14:31:04.741Z,3.40
2022-12-09T14:32:42.250Z,10.98
2022-12-09T14:33:47.538Z,5.20
2022-12-09T14:35:11.429Z,6.05
2022-12-09T14:36:14.856Z,4.43
2022-12-09T14:37:53.384Z,7.03
2022-12-09T14:39:27.493Z,4.47
2022-12-09T14:41:36.616Z,4.78
2022-12-09T14:42:53.354Z,5.90
2022-12-09T14:44:27.070Z,6.95
2022-12-09T14:46:02.009Z,8.32
2022-12-09T14:47:31.339Z,3.63
2022-12-09T14:48:41.070Z,4.95
2022-12-09T14:49:49.077Z,8.60
2022-12-09T14:51:21.769Z,4.75
2022-12-09T14:52:33.131Z,5.75
2022-12-09T14:53:38.464Z,8.43
2022-12-09T14:54:48.508Z,6.95
2022-12-09T14:55:52.476Z,3.50
2022-12-09T14:57:00.964Z,4.63
2022-12-09T14:58:05.603Z,3.83
2022-12-09T14:59:18.390Z,6.07
2022-12-09T15:00:41.807Z,5.97
2022-12-09T15:02:00.106Z,5.85
2022-12-09T15:03:33.349Z,6.43
2022-12-09T15:04:47.574Z,4.93
2022-12-09T15:06:02.931Z,8.32
2022-12-09T15:07:08.307Z,7.10
2022-12-09T15:08:35.853Z,6.13
2022-12-09T15:10:02.471Z,3.53
2022-12-09T15:11:20.302Z,6.07
2022-12-09T15:12:45.323Z,5.05
2022-12-09T15:13:53.977Z,11.65
2022-12-09T15:15:04.005Z,5.88
2022-12-09T15:16:12.375Z,7.35
2022-12-09T15:17:33.090Z,6.03
2022-12-09T15:18:40.616Z,4.53
2022-12-09T15:20:00.799Z,6.32
2022-12-09T15:21:08.502Z,8.43
2022-12-09T15:22:24.568Z,8.10
2022-12-09T15:23:34.807Z,6.82
2022-12-09T15:24:50.052Z,4.10
2022-12-09T15:25:57.715Z,4.78
2022-12-09T15:27:03.956Z,10.07
2022-12-09T15:28:25.889Z,4.80
2022-12-09T15:29:33.914Z,8.60
2022-12-09T15:30:38.424Z,5.53
2022-12-09T15:31:50.045Z,5.55
2022-12-09T15:32:53.481Z,5.93
2022-12-09T15:34:14.484Z,7.40
2022-12-09T15:35:26.578Z,4.97
2022-12-09T15:36:40.298Z,4.60
2022-12-09T15:37:45.542Z,7.60
2022-12-09T15:39:20.552Z,6.68
2022-12-09T15:40:29.543Z,8.07
2022-12-09T15:42:09.636Z,4.75
2022-12-09T15:43:15.835Z,6.03
2022-12-09T15:44:24.110Z,4.22
2022-12-09T15:45:37.339Z,7.00
2022-12-09T15:46:45.357Z,5.15
2022-12-09T15:48:18.169Z,4.43
2022-12-09T15:49:29.486Z,4.68
2022-12-09T15:50:49.869Z,6.07
2022-12-09T15:51:56.563Z,5.72
2022-12-09T15:53:34.551Z,10.25
2022-12-09T15:54:46.017Z,7.03
2022-12-09T15:56:11.875Z,8.05
2022-12-09T15:57:22.649Z,6.88
2022-12-09T15:58:39.682Z,5.50
2022-12-09T15:59:55.358Z,8.52
2022-12-09T16:00:59.854Z,5.32
2022-12-09T16:02:04.617Z,9.07
2022-12-09T16:03:09.526Z,8.52